Time;durP1;ratioP1;P1;durP2;ratioP2;P2;SDS_P1;SDS_P2;PMS_P1;PMS_P2;Temp;Humidity;BMP_temperature;BMP_pressure;BME280_temperature;BME280_humidity;BME280_pressure;Samples;Min_cycle;Max_cycle;Signal;HPM_P1;HPM_P2
2022/03/21 00:01:42;;;;;;;47.38;35.85;;;;;;;1.15;68.21;102875.69;5031773;28;20029;-91
2022/03/21 00:04:10;;;;;;;46.50;35.42;;;;;;;1.19;69.30;102893.13;5030412;28;20017;-91
2022/03/21 00:06:40;;;;;;;46.72;36.58;;;;;;;1.14;69.76;102889.66;5031523;28;20036;-90
2022/03/21 00:09:07;;;;;;;49.90;38.10;;;;;;;1.03;69.39;102880.97;5031187;28;20045;-91
2022/03/21 00:11:33;;;;;;;45.15;36.03;;;;;;;1.04;69.13;102877.50;5031629;28;20025;-91
2022/03/21 00:13:59;;;;;;;48.28;36.63;;;;;;;1.03;69.79;102891.44;5033555;28;20534;-90
2022/03/21 00:16:25;;;;;;;45.78;36.22;;;;;;;1.05;69.74;102897.53;5032660;28;20056;-91
2022/03/21 00:18:53;;;;;;;48.03;37.60;;;;;;;0.99;69.24;102881.88;5034458;28;20081;-91
2022/03/21 00:21:19;;;;;;;45.97;36.40;;;;;;;0.95;69.01;102887.97;5034304;28;20010;-91
2022/03/21 00:23:45;;;;;;;46.33;36.80;;;;;;;0.92;69.69;102883.63;5033934;28;20449;-89
2022/03/21 00:26:10;;;;;;;45.22;35.67;;;;;;;0.88;69.52;102885.41;5036268;28;20051;-90
2022/03/21 00:28:36;;;;;;;45.47;36.50;;;;;;;0.92;69.55;102900.19;5034751;28;20503;-90
2022/03/21 00:31:04;;;;;;;45.47;36.63;;;;;;;0.90;69.51;102906.31;5036242;28;20041;-91
2022/03/21 00:33:30;;;;;;;46.50;36.47;;;;;;;0.82;69.90;102901.09;5037778;28;20026;-90
2022/03/21 00:35:58;;;;;;;46.70;37.22;;;;;;;0.81;70.13;102907.19;5037690;28;20057;-91
2022/03/21 00:38:23;;;;;;;45.42;36.13;;;;;;;0.76;70.11;102902.88;5035456;28;20404;-91
2022/03/21 00:40:50;;;;;;;45.80;35.95;;;;;;;0.78;69.78;102909.81;5035269;28;20040;-91
2022/03/21 00:43:21;;;;;;;45.50;35.25;;;;;;;0.70;69.63;102896.78;5035621;28;20029;-90
2022/03/21 00:45:46;;;;;;;47.00;37.13;;;;;;;0.80;69.85;102917.66;5036722;28;20484;-91
2022/03/21 00:48:14;;;;;;;46.55;34.85;;;;;;;0.73;68.99;102906.34;5034463;28;20022;-90
2022/03/21 00:50:45;;;;;;;46.85;35.10;;;;;;;0.69;69.53;102904.63;5036508;28;20393;-90
2022/03/21 00:53:10;;;;;;;48.83;36.72;;;;;;;0.74;69.48;102913.31;5036593;28;20076;-92
2022/03/21 00:55:42;;;;;;;44.92;35.65;;;;;;;0.59;69.58;102898.53;5034813;28;20059;-89
2022/03/21 00:58:08;;;;;;;44.75;33.78;;;;;;;0.68;69.85;102921.19;5032921;28;20400;-91
2022/03/21 01:00:33;;;;;;;45.17;34.35;;;;;;;0.59;70.32;102906.38;5036400;28;20021;-91
2022/03/21 01:03:02;;;;;;;48.35;35.90;;;;;;;0.62;70.05;102919.47;5035841;28;20456;-91
2022/03/21 01:05:29;;;;;;;42.75;35.45;;;;;;;0.54;70.04;102908.13;5036570;28;20032;-88
2022/03/21 01:07:59;;;;;;;41.92;34.35;;;;;;;0.51;69.70;102910.75;5035191;28;20112;-90
2022/03/21 01:10:26;;;;;;;46.97;35.85;;;;;;;0.50;70.20;102917.72;5036730;28;20052;-90
2022/03/21 01:12:52;;;;;;;46.38;35.65;;;;;;;0.45;69.80;102913.34;5034289;28;20030;-90
2022/03/21 01:15:20;;;;;;;48.55;36.10;;;;;;;0.41;70.22;102914.25;5034603;28;20064;-91
2022/03/21 01:17:46;;;;;;;46.83;35.42;;;;;;;0.44;70.57;102927.31;5034382;28;20112;-91
2022/03/21 01:20:14;;;;;;;45.30;34.78;;;;;;;0.38;70.40;102916.88;5035024;28;20018;-91
2022/03/21 01:22:42;;;;;;;46.55;35.22;;;;;;;0.36;70.65;102917.72;5034470;28;20432;-91
2022/03/21 01:25:10;;;;;;;46.77;35.23;;;;;;;0.38;70.46;102922.94;5036597;28;20032;-91
2022/03/21 01:27:36;;;;;;;46.28;35.00;;;;;;;0.28;70.12;102909.00;5050169;28;20307;-91
2022/03/21 01:30:04;;;;;;;43.53;33.83;;;;;;;0.31;70.43;102923.84;5052736;28;20045;-92
2022/03/21 01:32:29;;;;;;;47.90;37.28;;;;;;;0.34;70.51;102923.84;5035926;28;20025;-91
2022/03/21 01:34:55;;;;;;;49.53;36.17;;;;;;;0.23;71.08;102904.66;5044556;28;20045;-91
2022/03/21 01:37:20;;;;;;;48.30;36.67;;;;;;;0.20;70.66;102896.81;5019104;28;20040;-91
2022/03/21 01:39:45;;;;;;;46.47;36.88;;;;;;;0.24;71.14;102922.09;5036002;28;20018;-90
2022/03/21 01:42:14;;;;;;;43.38;35.97;;;;;;;0.16;71.45;102916.88;5035649;28;20036;-91
2022/03/21 01:44:41;;;;;;;48.15;35.88;;;;;;;0.23;70.67;102933.41;5035942;28;20028;-91
2022/03/21 01:47:06;;;;;;;47.00;36.55;;;;;;;0.11;70.83;102914.25;5034203;28;20041;-91
2022/03/21 01:49:32;;;;;;;49.38;36.70;;;;;;;0.17;71.19;102929.94;5035553;28;20037;-91
2022/03/21 01:51:57;;;;;;;49.65;36.65;;;;;;;0.15;71.55;102917.72;5035947;28;20029;-91
2022/03/21 01:57:07;;;;;;;50.15;36.33;;;;;;;0.16;71.25;102927.31;5035147;28;20128;-91
2022/03/21 01:59:33;;;;;;;46.08;35.67;;;;;;;0.18;71.50;102931.69;5037549;28;20029;-91
2022/03/21 02:01:59;;;;;;;47.05;37.38;;;;;;;0.11;71.34;102916.84;5033430;28;20028;-91
2022/03/21 02:04:24;;;;;;;47.15;36.58;;;;;;;0.09;71.40;102913.38;5036061;28;20469;-92
2022/03/21 02:06:50;;;;;;;49.50;37.38;;;;;;;0.03;71.77;102912.50;5033296;28;20392;-91
2022/03/21 02:09:15;;;;;;;50.50;38.45;;;;;;;0.03;72.14;102912.50;5035413;28;20502;-91
2022/03/21 02:11:41;;;;;;;51.63;38.10;;;;;;;0.04;71.91;102915.13;5034003;28;20040;-92
2022/03/21 02:14:14;;;;;;;49.58;37.90;;;;;;;0.08;72.32;102924.69;5034920;28;20393;-89
2022/03/21 02:16:42;;;;;;;52.60;39.67;;;;;;;0.03;72.32;102922.94;5035238;28;20033;-90
2022/03/21 02:19:19;;;;;;;48.05;37.47;;;;;;;-0.08;72.08;102915.97;5034016;28;20453;-90
2022/03/21 02:22:08;;;;;;;50.17;37.90;;;;;;;-0.03;71.84;102932.53;5034157;28;20036;-91
2022/03/21 02:24:39;;;;;;;;;;;;;;;0.06;70.08;102934.28;5034823;28;20104;-91
2022/03/21 02:27:07;;;;;;;49.97;36.28;;;;;;;-0.10;71.98;102917.72;5033647;28;19917;-91
2022/03/21 02:29:34;;;;;;;53.50;37.70;;;;;;;-0.10;72.15;102922.94;5034067;28;20057;-91
2022/03/21 02:32:02;;;;;;;;;;;;;;;0.00;70.22;102939.50;5035170;28;20056;-92
2022/03/21 02:34:29;;;;;;;46.97;35.00;;;;;;;-0.19;72.53;102915.09;5034654;28;19928;-92
2022/03/21 02:36:59;;;;;;;47.00;35.92;;;;;;;-0.19;71.82;102929.00;5033626;28;20113;-91
2022/03/21 02:39:26;;;;;;;53.58;36.90;;;;;;;-0.18;72.37;102929.91;5035269;28;20140;-92
2022/03/21 02:41:54;;;;;;;52.72;37.22;;;;;;;-0.17;72.51;102936.84;5036509;28;20120;-91
2022/03/21 02:44:32;;;;;;;55.00;38.97;;;;;;;-0.26;72.72;102915.97;5034652;28;20028;-91
2022/03/21 02:47:00;;;;;;;50.63;38.53;;;;;;;-0.26;72.36;102921.19;5034700;28;20018;-91
2022/03/21 02:49:26;;;;;;;47.88;37.10;;;;;;;-0.28;72.20;102917.69;5034701;28;20057;-91
2022/03/21 02:51:52;;;;;;;50.90;38.65;;;;;;;-0.26;73.04;102929.00;5035088;28;20044;-91
2022/03/21 02:54:21;;;;;;;47.92;37.45;;;;;;;-0.34;72.98;102910.69;5034337;28;20022;-93
2022/03/21 02:56:47;;;;;;;47.67;36.78;;;;;;;-0.34;72.27;102918.53;5034193;28;20029;-91
2022/03/21 02:59:12;;;;;;;49.13;37.50;;;;;;;-0.37;73.34;102918.53;5034610;28;20044;-92
2022/03/21 03:01:37;;;;;;;48.35;38.70;;;;;;;-0.28;73.43;102925.53;5038424;28;20029;-90
2022/03/21 03:04:03;;;;;;;51.28;40.33;;;;;;;-0.34;72.67;102918.53;5041309;28;20026;-91
2022/03/21 03:06:28;;;;;;;54.10;38.45;;;;;;;-0.39;72.71;102923.75;5035266;28;20025;-91
2022/03/21 03:08:56;;;;;;;52.00;39.25;;;;;;;-0.37;72.92;102918.53;5034876;28;20025;-91
2022/03/21 03:11:22;;;;;;;53.67;38.13;;;;;;;-0.34;73.16;102934.19;5030794;28;20045;-92
2022/03/21 03:13:54;;;;;;;50.67;39.17;;;;;;;-0.43;72.87;102913.31;5036416;28;20365;-93
2022/03/21 03:16:20;;;;;;;49.28;37.53;;;;;;;-0.42;73.02;102925.47;5040285;28;20030;-91
2022/03/21 03:18:48;;;;;;;50.28;37.92;;;;;;;-0.47;72.38;102916.75;5053118;28;20093;-91
2022/03/21 03:21:21;;;;;;;52.53;39.42;;;;;;;-0.43;73.01;102928.97;5038501;28;20029;-93
2022/03/21 03:23:51;;;;;;;49.70;38.50;;;;;;;-0.41;72.90;102927.22;5034202;28;20026;-92
2022/03/21 03:26:17;;;;;;;51.22;38.35;;;;;;;-0.47;73.03;102927.19;5111373;22;20037;-86
2022/03/21 03:28:45;;;;;;;50.85;39.17;;;;;;;-0.48;73.36;102931.56;5072149;28;20017;-86
2022/03/21 03:31:13;;;;;;;53.63;39.60;;;;;;;-0.46;73.68;102937.66;5069568;28;20017;-85
2022/03/21 03:33:38;;;;;;;54.38;39.30;;;;;;;-0.51;73.39;102923.72;5088386;28;20044;-86
2022/03/21 03:36:04;;;;;;;53.53;40.63;;;;;;;-0.50;73.24;102929.81;5066116;28;20024;-86
2022/03/21 03:38:30;;;;;;;52.92;38.45;;;;;;;-0.50;73.53;102935.91;5074904;28;20013;-86
2022/03/21 03:40:57;;;;;;;52.42;39.90;;;;;;;-0.57;73.58;102934.13;5076549;28;20017;-86
2022/03/21 03:43:23;;;;;;;52.30;39.75;;;;;;;-0.60;73.32;102935.00;5069813;28;20021;-85
2022/03/21 03:45:52;;;;;;;54.17;40.17;;;;;;;-0.57;73.56;102941.97;5068461;28;20054;-86
2022/03/21 03:48:20;;;;;;;53.10;40.00;;;;;;;-0.60;73.36;102942.84;5073351;28;20024;-86
2022/03/21 03:50:46;;;;;;;53.13;40.13;;;;;;;-0.58;73.63;102935.88;5075897;28;20054;-87
2022/03/21 03:53:12;;;;;;;54.00;40.92;;;;;;;-0.60;73.75;102942.84;5071391;28;20021;-87
2022/03/21 03:55:37;;;;;;;52.95;40.72;;;;;;;-0.60;73.76;102936.72;5076271;28;20032;-86
2022/03/21 03:58:03;;;;;;;53.85;41.50;;;;;;;-0.61;74.21;102945.44;5077522;28;20071;-86
2022/03/21 04:00:29;;;;;;;61.20;44.42;;;;;;;-0.63;75.28;102947.19;5080151;28;20029;-86
2022/03/21 04:05:38;;;;;;;54.05;41.65;;;;;;;-0.65;74.83;102944.56;5067065;28;20040;-86
2022/03/21 04:08:05;;;;;;;58.20;42.47;;;;;;;-0.67;74.09;102948.88;5080883;28;20024;-86
2022/03/21 04:10:31;;;;;;;57.42;40.47;;;;;;;-0.70;73.87;102948.88;5093887;28;20044;-86
2022/03/21 04:12:56;;;;;;;55.33;42.03;;;;;;;-0.71;74.54;102954.97;5079576;28;20021;-86
2022/03/21 04:15:22;;;;;;;56.67;41.78;;;;;;;-0.69;74.16;102952.34;5077442;28;20051;-85
2022/03/21 04:17:48;;;;;;;55.67;42.28;;;;;;;-0.70;74.58;102942.78;5075897;28;20039;-85
2022/03/21 04:20:14;;;;;;;58.35;43.45;;;;;;;-0.72;74.52;102945.38;5076035;28;20021;-85
2022/03/21 04:22:39;;;;;;;58.20;44.35;;;;;;;-0.66;75.03;102955.00;5072208;28;20030;-85
2022/03/21 04:25:07;;;;;;;55.35;41.92;;;;;;;-0.74;74.90;102954.94;5080604;28;20021;-85
2022/03/21 04:27:33;;;;;;;58.40;43.08;;;;;;;-0.71;75.51;102959.31;5075195;28;20037;-85
2022/03/21 04:29:59;;;;;;;57.00;42.08;;;;;;;-0.71;75.34;102962.78;5083414;28;20025;-85
2022/03/21 04:32:25;;;;;;;55.97;41.50;;;;;;;-0.77;74.91;102942.78;5100840;28;20024;-86
2022/03/21 04:34:51;;;;;;;57.10;43.55;;;;;;;-0.74;75.24;102947.13;5082623;28;20023;-86
2022/03/21 04:37:16;;;;;;;56.03;43.55;;;;;;;-0.77;74.61;102947.09;5078994;28;20085;-86
2022/03/21 04:39:45;;;;;;;54.83;41.00;;;;;;;-0.79;74.76;102941.00;5080185;28;20033;-86
2022/03/21 04:42:10;;;;;;;61.60;42.20;;;;;;;-0.81;75.71;102945.34;5080263;28;20021;-86
2022/03/21 04:44:36;;;;;;;58.83;43.50;;;;;;;-0.78;75.31;102961.03;5076061;28;20032;-86
2022/03/21 04:47:02;;;;;;;61.95;42.92;;;;;;;-0.80;75.32;102955.81;5080168;28;20029;-85
2022/03/21 04:49:27;;;;;;;58.85;44.15;;;;;;;-0.83;75.05;102949.69;5078479;28;20024;-85
2022/03/21 04:51:55;;;;;;;53.63;41.22;;;;;;;-0.81;75.46;102958.41;5080212;28;20041;-85
2022/03/21 04:54:21;;;;;;;60.88;43.67;;;;;;;-0.85;74.88;102952.31;5062752;28;20025;-86
2022/03/21 04:56:46;;;;;;;61.30;43.95;;;;;;;-0.81;74.93;102966.22;5075774;28;20064;-85
2022/03/21 04:59:12;;;;;;;56.00;42.00;;;;;;;-0.89;75.71;102958.34;5091080;28;20037;-85
2022/03/21 05:01:37;;;;;;;59.30;41.80;;;;;;;-0.86;76.21;102963.59;5081667;28;20017;-85
2022/03/21 05:04:08;;;;;;;56.65;42.22;;;;;;;-0.90;75.49;102968.78;5068674;28;20096;-85
2022/03/21 05:06:34;;;;;;;58.78;42.47;;;;;;;-0.95;75.62;102967.03;5078725;28;20047;-86
2022/03/21 05:09:03;;;;;;;54.90;42.75;;;;;;;-0.98;75.90;102969.59;5078984;28;20013;-86
2022/03/21 05:11:28;;;;;;;56.97;42.13;;;;;;;-0.98;75.14;102967.00;5068920;28;20021;-86
2022/03/21 05:13:54;;;;;;;53.25;40.55;;;;;;;-0.97;74.82;102971.34;5078995;28;20017;-86
2022/03/21 05:16:20;;;;;;;58.13;41.50;;;;;;;-0.99;75.44;102973.06;5078906;28;20013;-85
2022/03/21 05:18:45;;;;;;;55.78;40.15;;;;;;;-1.00;74.78;102968.72;5078614;28;20049;-85
2022/03/21 05:21:11;;;;;;;55.95;41.10;;;;;;;-0.95;74.94;102973.94;5075759;28;20017;-86
2022/03/21 05:31:51;;;;;;;58.30;42.40;;;;;;;-0.97;76.08;102979.16;5079233;28;20128;-86
2022/03/21 05:37:00;;;;;;;55.53;41.75;;;;;;;-0.99;75.62;102978.28;5078914;28;20044;-86
2022/03/21 05:39:26;;;;;;;57.72;42.78;;;;;;;-0.99;76.74;102974.81;5074768;28;20017;-86
2022/03/21 05:41:54;;;;;;;61.17;41.78;;;;;;;-0.99;76.27;102978.28;5077399;28;20025;-86
2022/03/21 05:44:20;;;;;;;59.65;44.17;;;;;;;-0.99;76.55;102974.81;5078418;28;20025;-86
2022/03/21 05:46:46;;;;;;;62.47;43.95;;;;;;;-1.02;76.83;102975.66;5078385;28;20051;-85
2022/03/21 05:49:12;;;;;;;62.97;43.22;;;;;;;-1.01;77.00;102984.38;5091346;28;20021;-86
2022/03/21 05:51:42;;;;;;;63.38;42.95;;;;;;;-1.07;76.78;102974.75;5080481;28;20024;-86
2022/03/21 05:54:10;;;;;;;56.88;40.95;;;;;;;-1.04;77.17;102977.38;5078510;28;20041;-86
2022/03/21 05:56:36;;;;;;;58.60;44.13;;;;;;;-1.03;78.02;102973.94;5088920;28;20040;-86
2022/03/21 06:01:59;;;;;;;56.58;41.22;;;;;;;-1.03;77.50;102986.97;5082363;28;20094;-87
2022/03/21 06:04:25;;;;;;;61.05;42.80;;;;;;;-1.01;77.66;102993.06;5077985;28;20051;-86
2022/03/21 06:06:51;;;;;;;55.42;41.15;;;;;;;-1.04;76.98;102984.34;5077000;28;20024;-86
2022/03/21 06:09:19;;;;;;;60.20;41.63;;;;;;;-1.02;76.95;102993.06;5087356;28;20016;-86
2022/03/21 06:11:48;;;;;;;60.25;44.35;;;;;;;-1.02;77.30;102993.91;5080887;28;20084;-86
2022/03/21 06:14:20;;;;;;;59.80;42.97;;;;;;;-0.98;77.67;103000.91;5074000;28;20025;-86
2022/03/21 06:16:46;;;;;;;64.07;43.67;;;;;;;-0.97;77.57;102999.16;5072211;28;20017;-86
2022/03/21 06:19:12;;;;;;;65.75;43.75;;;;;;;-0.95;77.20;103006.16;5079505;28;20028;-86
2022/03/21 06:21:38;;;;;;;57.85;41.42;;;;;;;-0.99;76.89;102993.94;5073509;28;20014;-87
2022/03/21 06:24:04;;;;;;;59.00;43.25;;;;;;;-0.97;76.88;102993.94;5072702;28;20024;-87
2022/03/21 06:26:29;;;;;;;57.35;41.25;;;;;;;-0.95;76.91;102998.31;5071283;28;20107;-86
2022/03/21 06:28:55;;;;;;;61.63;42.80;;;;;;;-0.87;77.39;103010.53;5071850;28;20028;-86
2022/03/21 06:31:24;;;;;;;58.15;42.58;;;;;;;-0.87;77.79;103014.00;5062756;28;20056;-85
2022/03/21 06:33:49;;;;;;;62.97;44.58;;;;;;;-0.82;77.89;103019.25;5075856;28;20033;-86
2022/03/21 06:36:15;;;;;;;65.18;44.50;;;;;;;-0.82;78.15;103003.59;5077705;28;20025;-85
2022/03/21 06:38:44;;;;;;;62.17;44.30;;;;;;;-0.78;78.13;103008.00;5073715;28;20033;-86
2022/03/21 06:41:10;;;;;;;61.63;43.13;;;;;;;-0.73;78.21;103011.50;5077766;28;20005;-87
2022/03/21 06:43:35;;;;;;;64.53;45.15;;;;;;;-0.72;78.84;103008.00;5078892;28;20069;-87
2022/03/21 06:46:01;;;;;;;59.42;43.55;;;;;;;-0.66;78.07;103020.22;5077272;28;20286;-87
2022/03/21 06:48:30;;;;;;;63.53;44.45;;;;;;;-0.66;78.93;103018.47;5084229;28;20064;-87
2022/03/21 06:50:56;;;;;;;63.22;44.95;;;;;;;-0.60;78.83;103017.63;5072666;28;20022;-87
2022/03/21 06:53:22;;;;;;;64.70;46.70;;;;;;;-0.54;79.44;103022.03;5079594;28;20083;-87
2022/03/21 06:55:48;;;;;;;71.70;48.40;;;;;;;-0.47;79.80;103029.00;5083772;22;20052;-68
2022/03/21 06:58:19;;;;;;;78.97;46.88;;;;;;;-0.40;80.73;103025.56;5048997;28;20021;-68
2022/03/21 07:00:47;;;;;;;66.82;46.08;;;;;;;-0.35;80.57;103036.03;5039307;28;20028;-68
2022/03/21 07:03:17;;;;;;;69.55;48.75;;;;;;;-0.30;80.83;103024.75;5050947;28;20040;-67
2022/03/21 07:05:43;;;;;;;68.25;47.92;;;;;;;-0.23;81.16;103034.34;5051008;28;20021;-68
2022/03/21 07:08:08;;;;;;;74.47;50.30;;;;;;;-0.15;81.34;103036.09;5029161;28;20069;-68
2022/03/21 07:10:34;;;;;;;71.28;50.75;;;;;;;-0.09;81.84;103033.53;5049784;28;20536;-68
2022/03/21 07:13:04;;;;;;;71.70;49.42;;;;;;;0.01;81.71;103037.91;5049859;28;20036;-68
2022/03/21 07:15:30;;;;;;;69.78;49.33;;;;;;;0.08;81.61;103039.66;5049440;28;20036;-69
2022/03/21 07:17:56;;;;;;;67.25;46.90;;;;;;;0.17;81.81;103047.53;5049739;28;20079;-68
2022/03/21 07:20:24;;;;;;;68.38;48.70;;;;;;;0.26;81.68;103046.66;5037108;28;20119;-69
2022/03/21 07:22:50;;;;;;;69.43;47.88;;;;;;;0.34;82.04;103039.72;5051082;28;20020;-69
2022/03/21 07:25:16;;;;;;;68.57;48.20;;;;;;;0.44;82.22;103045.84;5051277;28;20027;-69
2022/03/21 07:27:45;;;;;;;68.13;49.75;;;;;;;0.57;82.73;103041.50;5048762;28;20021;-68
2022/03/21 07:30:12;;;;;;;64.40;48.03;;;;;;;0.69;82.73;103046.72;5041343;28;20036;-69
2022/03/21 07:32:38;;;;;;;68.63;48.50;;;;;;;0.84;82.67;103034.53;5049790;28;20025;-69
2022/03/21 07:35:04;;;;;;;76.50;50.83;;;;;;;1.02;83.61;103039.72;5036637;28;20052;-69
2022/03/21 07:37:38;;;;;;;74.80;52.55;;;;;;;1.20;84.60;103041.47;5030564;28;20028;-69
2022/03/21 07:40:04;;;;;;;79.35;51.58;;;;;;;1.45;84.94;103042.25;5048540;28;20044;-69
2022/03/21 07:42:31;;;;;;;74.53;52.63;;;;;;;1.71;84.52;103041.28;5047238;28;20382;-69
2022/03/21 07:47:40;;;;;;;71.88;49.28;;;;;;;2.33;84.33;103049.72;5033416;28;20557;-69
2022/03/21 07:50:06;;;;;;;75.50;51.20;;;;;;;2.65;84.18;103047.72;5032469;28;20037;-69
2022/03/21 07:52:32;;;;;;;72.03;49.05;;;;;;;3.01;84.26;103048.28;5031008;28;20553;-69
2022/03/21 07:54:57;;;;;;;67.38;49.00;;;;;;;3.37;84.12;103036.53;5035798;28;20056;-68
2022/03/21 07:57:24;;;;;;;62.83;46.20;;;;;;;3.72;83.53;103037.88;5031402;28;20034;-69
2022/03/21 07:59:53;;;;;;;60.08;43.90;;;;;;;4.07;81.88;103036.56;5032606;28;20540;-69
2022/03/21 08:02:19;;;;;;;57.17;42.05;;;;;;;4.42;82.02;103038.66;5050307;28;20033;-69
2022/03/21 08:04:47;;;;;;;57.40;39.28;;;;;;;4.78;81.50;103032.81;5043409;28;20088;-68
2022/03/21 08:07:13;;;;;;;52.58;39.05;;;;;;;5.14;81.00;103036.56;5049939;28;20060;-69
2022/03/21 08:09:38;;;;;;;47.63;34.63;;;;;;;5.50;79.81;103035.91;5050116;28;20064;-69
2022/03/21 08:12:04;;;;;;;47.88;33.63;;;;;;;5.83;77.77;103033.44;5041016;28;20469;-68
2022/03/21 08:14:29;;;;;;;44.33;31.65;;;;;;;6.19;76.65;103039.69;5035171;28;20048;-69
2022/03/21 08:16:55;;;;;;;41.33;31.13;;;;;;;6.53;76.02;103038.94;5036908;28;20017;-69
2022/03/21 08:19:24;;;;;;;39.28;29.55;;;;;;;6.92;74.66;103036.19;5035282;28;20048;-69
2022/03/21 08:21:50;;;;;;;42.63;27.55;;;;;;;7.23;73.41;103038.00;5035569;28;20423;-69
2022/03/21 08:24:16;;;;;;;34.88;24.33;;;;;;;7.55;71.23;103037.09;5034778;28;20065;-69
2022/03/21 08:26:41;;;;;;;40.40;24.67;;;;;;;7.91;70.31;103036.06;5031083;28;20083;-69
2022/03/21 08:29:08;;;;;;;33.92;22.40;;;;;;;8.26;68.50;103029.69;5055467;28;20041;-69
2022/03/21 08:31:33;;;;;;;36.50;20.92;;;;;;;8.59;67.20;103037.47;5050995;28;20021;-68
2022/03/21 08:33:59;;;;;;;30.02;19.35;;;;;;;8.87;65.48;103029.47;5050230;28;20052;-68
2022/03/21 08:36:24;;;;;;;32.70;19.10;;;;;;;9.12;63.08;103025.97;5051825;28;20475;-67
2022/03/21 08:38:49;;;;;;;30.23;18.10;;;;;;;9.38;61.52;103026.81;5051051;28;20511;-65
2022/03/21 08:41:16;;;;;;;25.13;16.70;;;;;;;9.64;60.62;103028.50;5048572;28;20036;-65
2022/03/21 08:43:42;;;;;;;24.98;17.05;;;;;;;9.90;59.53;103029.31;5049548;28;20037;-68
2022/03/21 08:46:07;;;;;;;26.70;16.30;;;;;;;10.19;59.46;103030.78;5039636;28;20088;-69
2022/03/21 08:51:18;;;;;;;26.55;16.83;;;;;;;10.80;56.91;103021.28;5046716;28;20044;-68
2022/03/21 08:53:43;;;;;;;23.20;15.98;;;;;;;11.17;56.80;103017.00;5031719;28;20037;-68
2022/03/21 08:56:09;;;;;;;25.33;16.75;;;;;;;11.45;55.50;103016.63;5044842;28;20051;-70
2022/03/21 08:58:34;;;;;;;23.88;16.00;;;;;;;11.63;54.37;103017.59;5041233;28;20028;-69
2022/03/21 09:00:59;;;;;;;25.83;15.85;;;;;;;11.85;53.64;103012.09;5051216;28;20031;-70
2022/03/21 09:03:24;;;;;;;21.52;15.18;;;;;;;12.07;53.01;103011.13;5052978;28;20075;-69
2022/03/21 09:05:50;;;;;;;25.15;16.05;;;;;;;12.25;51.41;103009.38;5049984;28;20040;-69
2022/03/21 09:08:17;;;;;;;24.42;16.35;;;;;;;12.40;51.08;103009.44;5051652;28;20052;-69
2022/03/21 09:10:42;;;;;;;23.92;15.57;;;;;;;12.57;50.36;103013.97;5053101;28;20033;-69
2022/03/21 09:13:07;;;;;;;25.40;15.97;;;;;;;12.84;50.12;103012.63;5052909;28;20072;-69
2022/03/21 09:15:34;;;;;;;27.08;16.48;;;;;;;13.07;49.45;103016.75;5041083;28;20283;-69
2022/03/21 09:18:00;;;;;;;28.92;16.75;;;;;;;13.22;48.97;103015.09;5054752;28;20033;-69
2022/03/21 09:20:25;;;;;;;25.75;15.27;;;;;;;13.43;48.49;103013.13;5054884;28;20481;-69
2022/03/21 09:22:50;;;;;;;23.35;15.77;;;;;;;13.62;48.32;103021.84;5045530;28;20033;-69
2022/03/21 09:25:17;;;;;;;25.98;16.40;;;;;;;13.95;48.39;103012.03;5054570;28;20094;-69
2022/03/21 09:27:43;;;;;;;22.90;15.55;;;;;;;14.11;46.82;103018.25;5054668;28;20029;-70
2022/03/21 09:30:10;;;;;;;29.98;15.13;;;;;;;14.37;46.07;103003.38;5052413;28;20506;-70
2022/03/21 09:32:36;;;;;;;26.30;15.02;;;;;;;14.60;45.45;102996.72;5048205;28;20068;-70
2022/03/21 09:35:02;;;;;;;24.05;14.35;;;;;;;14.91;45.01;103002.03;5048714;28;20065;-70
2022/03/21 09:37:27;;;;;;;22.25;14.38;;;;;;;15.09;45.09;102997.38;5054470;28;20059;-70
2022/03/21 09:39:53;;;;;;;18.55;13.45;;;;;;;15.27;42.96;102990.88;5050623;28;20028;-70
2022/03/21 09:42:20;;;;;;;20.58;14.68;;;;;;;15.39;42.27;102988.38;5052240;28;20032;-68
2022/03/21 09:44:52;;;;;;;23.70;13.65;;;;;;;15.53;41.79;102993.72;5047736;28;20044;-67
2022/03/21 09:50:12;;;;;;;19.20;13.10;;;;;;;15.88;42.17;102987.97;5029376;28;20441;-67
2022/03/21 09:52:38;;;;;;;23.73;13.20;;;;;;;16.11;41.02;102988.28;5060359;28;20029;-68
2022/03/21 09:55:05;;;;;;;23.63;13.52;;;;;;;16.26;40.85;102979.22;5049710;28;20659;-67
2022/03/21 09:57:31;;;;;;;22.35;13.43;;;;;;;16.28;39.79;102978.13;5050329;28;20448;-68
2022/03/21 09:59:59;;;;;;;22.17;12.75;;;;;;;16.57;40.19;102980.69;5048767;28;20029;-68
2022/03/21 10:02:25;;;;;;;20.77;13.05;;;;;;;16.78;39.26;102981.03;5046935;28;20029;-67
2022/03/21 10:04:52;;;;;;;18.83;12.55;;;;;;;17.01;38.55;102981.28;5051337;28;20043;-66
2022/03/21 10:07:25;;;;;;;22.70;12.40;;;;;;;17.10;39.77;102975.28;5051841;28;20463;-66
2022/03/21 10:10:12;;;;;;;19.73;12.85;;;;;;;17.05;40.36;102974.72;5048981;28;20025;-66
2022/03/21 10:12:38;;;;;;;22.08;13.07;;;;;;;17.00;38.03;102979.56;5046093;28;20032;-67
2022/03/21 10:15:07;;;;;;;18.45;13.48;;;;;;;17.10;37.97;102966.34;5050694;28;20045;-66
2022/03/21 10:17:32;;;;;;;20.38;13.80;;;;;;;17.20;37.84;102973.66;5050574;28;20060;-67
2022/03/21 10:19:58;;;;;;;18.67;12.55;;;;;;;17.47;37.56;102966.41;5041276;28;20574;-67
2022/03/21 10:22:33;;;;;;;22.70;13.13;;;;;;;17.60;38.08;102966.38;5048749;28;20021;-66
2022/03/21 10:25:05;;;;;;;24.60;13.65;;;;;;;17.44;37.91;102964.81;5049717;28;20091;-67
2022/03/21 10:27:38;;;;;;;19.60;14.15;;;;;;;17.48;38.30;102963.59;5044115;28;20081;-67
2022/03/21 10:30:09;;;;;;;20.50;14.27;;;;;;;17.74;37.28;102963.53;5050309;28;20148;-66
2022/03/21 10:32:37;;;;;;;19.55;13.93;;;;;;;17.68;36.77;102967.53;5051259;28;20083;-66
2022/03/21 10:35:12;;;;;;;21.13;14.07;;;;;;;17.87;37.35;102966.19;5048867;28;20044;-67
2022/03/21 10:37:43;;;;;;;21.77;14.07;;;;;;;17.87;36.58;102967.06;5050987;28;20127;-66
2022/03/21 10:40:23;;;;;;;23.70;14.23;;;;;;;18.06;38.19;102965.69;5050471;28;20048;-67
2022/03/21 10:42:59;;;;;;;22.52;14.00;;;;;;;18.22;37.23;102957.31;5050682;28;20025;-67
2022/03/21 10:45:49;;;;;;;28.02;14.88;;;;;;;18.39;38.12;102964.13;5038886;28;20537;-66
2022/03/21 10:48:18;;;;;;;23.85;14.18;;;;;;;18.63;36.18;102961.38;5049493;28;20033;-67
2022/03/21 10:50:46;;;;;;;26.10;15.20;;;;;;;18.72;35.77;102960.66;5035500;28;20490;-66
2022/03/21 10:53:38;;;;;;;23.23;14.75;;;;;;;18.96;37.28;102963.28;5044164;28;20056;-67
2022/03/21 10:56:08;;;;;;;25.30;14.95;;;;;;;19.13;35.33;102953.03;5046774;28;20056;-67
2022/03/21 10:58:41;;;;;;;21.70;15.38;;;;;;;19.21;35.96;102943.34;5038832;28;20114;-66
2022/03/21 11:01:13;;;;;;;22.88;14.93;;;;;;;19.32;35.61;102949.72;5049848;28;20494;-67
2022/03/21 11:03:43;;;;;;;23.40;15.68;;;;;;;19.18;34.23;102948.13;5041327;28;20118;-66
2022/03/21 11:06:09;;;;;;;21.73;15.52;;;;;;;19.30;35.14;102943.56;5046629;28;20410;-67
2022/03/21 11:08:36;;;;;;;21.63;15.20;;;;;;;19.59;35.21;102939.38;5050120;28;20052;-68
2022/03/21 11:11:03;;;;;;;29.73;15.00;;;;;;;19.73;34.50;102935.56;5049533;28;20036;-69
2022/03/21 11:13:29;;;;;;;23.80;15.02;;;;;;;19.94;34.24;102932.94;5047658;28;20033;-68
2022/03/21 11:15:55;;;;;;;22.38;14.02;;;;;;;20.01;34.10;102935.13;5052161;28;20465;-68
2022/03/21 11:18:21;;;;;;;24.27;16.25;;;;;;;19.75;34.29;102936.31;5057262;28;20035;-68
2022/03/21 11:20:47;;;;;;;19.52;14.18;;;;;;;19.74;34.71;102939.94;5052898;28;20104;-68
2022/03/21 11:23:15;;;;;;;21.63;15.85;;;;;;;19.90;34.67;102927.91;5046506;28;20029;-68
2022/03/21 11:25:47;;;;;;;23.30;14.70;;;;;;;20.25;35.63;102930.34;5051708;28;20035;-69
2022/03/21 11:28:31;;;;;;;21.38;14.55;;;;;;;20.55;35.34;102931.41;5053131;28;20376;-68
2022/03/21 11:31:19;;;;;;;21.05;14.15;;;;;;;20.75;35.67;102921.63;5049530;28;20109;-68
2022/03/21 11:34:01;;;;;;;19.85;13.75;;;;;;;20.91;34.22;102923.81;5051884;28;20055;-70
2022/03/21 11:36:26;;;;;;;25.70;15.57;;;;;;;20.98;33.07;102921.44;5046594;28;20033;-69
2022/03/21 11:39:00;;;;;;;16.33;13.25;;;;;;;20.86;33.51;102924.22;5038019;28;20033;-68
2022/03/21 11:41:26;;;;;;;22.17;13.65;;;;;;;20.76;33.06;102917.91;5049627;28;20052;-69